Time;durP1;ratioP1;P1;durP2;ratioP2;P2;SDS_P1;SDS_P2;PMS_P1;PMS_P2;Temp;Humidity;BMP_temperature;BMP_pressure;BME280_temperature;BME280_humidity;BME280_pressure;Samples;Min_cycle;Max_cycle;Signal;HPM_P1;HPM_P2
2022/11/07 00:02:26;;;;;;;0.10;0.10;;;;;;;7.22;100.00;96094.34;4910583;29;20368;-76
2022/11/07 00:05:12;;;;;;;0.10;0.10;;;;;;;7.15;100.00;96094.47;4912672;29;20040;-76
2022/11/07 00:07:58;;;;;;;0.10;0.10;;;;;;;7.08;100.00;96095.63;4913921;29;20139;-76
2022/11/07 00:10:44;;;;;;;0.10;0.10;;;;;;;7.03;100.00;96100.88;4915045;29;20144;-76
2022/11/07 00:13:30;;;;;;;0.10;0.10;;;;;;;6.97;100.00;96105.28;4912146;29;20067;-76
2022/11/07 00:16:16;;;;;;;0.10;0.10;;;;;;;7.03;100.00;96111.53;4913585;29;20064;-76
2022/11/07 00:19:02;;;;;;;0.10;0.10;;;;;;;6.96;100.00;96116.97;4915380;29;20067;-76
2022/11/07 00:21:48;;;;;;;0.10;0.10;;;;;;;7.10;100.00;96104.22;4915587;29;20066;-74
2022/11/07 00:24:34;;;;;;;0.10;0.10;;;;;;;7.20;100.00;96109.75;4918959;29;20039;-76
2022/11/07 00:27:20;;;;;;;0.10;0.10;;;;;;;7.14;100.00;96108.00;4918238;29;20083;-76
2022/11/07 00:30:06;;;;;;;0.10;0.10;;;;;;;7.19;100.00;96118.78;4918165;29;20050;-75
2022/11/07 00:32:52;;;;;;;0.10;0.10;;;;;;;7.14;100.00;96127.44;4918085;29;20106;-76
2022/11/07 00:35:41;;;;;;;0.10;0.10;;;;;;;7.25;100.00;96131.16;4919735;29;20481;-76
2022/11/07 00:38:27;;;;;;;0.10;0.10;;;;;;;7.28;100.00;96127.19;4928242;28;20695;-75
2022/11/07 00:41:14;;;;;;;0.10;0.10;;;;;;;7.25;100.00;96120.50;4914997;29;20067;-75
2022/11/07 00:44:00;;;;;;;0.10;0.10;;;;;;;7.25;100.00;96133.81;4915741;29;20054;-76
2022/11/07 00:46:45;;;;;;;0.10;0.10;;;;;;;7.14;100.00;96134.63;4917142;29;20673;-76
2022/11/07 00:49:31;;;;;;;0.10;0.10;;;;;;;7.09;100.00;96147.84;4915313;29;20051;-76
2022/11/07 00:52:17;;;;;;;0.10;0.10;;;;;;;7.17;100.00;96144.81;4913200;29;20048;-75
2022/11/07 00:55:03;;;;;;;0.10;0.10;;;;;;;7.25;100.00;96134.63;4914433;29;20115;-76
2022/11/07 00:57:49;;;;;;;0.10;0.10;;;;;;;7.33;100.00;96136.09;4919861;29;20362;-76
2022/11/07 01:00:36;;;;;;;0.10;0.10;;;;;;;7.25;100.00;96139.13;4916123;29;20047;-74
2022/11/07 01:06:29;;;;;;;0.10;0.10;;;;;;;6.98;100.00;96149.44;4916424;29;20043;-76
2022/11/07 01:09:20;;;;;;;0.10;0.10;;;;;;;6.95;100.00;96147.28;4915835;29;20039;-76
2022/11/07 01:12:06;;;;;;;0.10;0.10;;;;;;;6.90;100.00;96147.16;4914424;29;20220;-74
2022/11/07 01:14:52;;;;;;;0.10;0.10;;;;;;;6.93;100.00;96141.38;4917045;29;20079;-75
2022/11/07 01:17:38;;;;;;;0.10;0.10;;;;;;;6.83;100.00;96123.31;4915825;29;20269;-76
2022/11/07 01:20:24;;;;;;;0.10;0.10;;;;;;;6.85;100.00;96136.41;4913860;29;20039;-75
2022/11/07 01:23:10;;;;;;;0.10;0.10;;;;;;;6.89;100.00;96145.53;4915936;29;20040;-76
2022/11/07 01:25:57;;;;;;;0.10;0.10;;;;;;;7.03;100.00;96138.13;4914738;29;20043;-76
2022/11/07 01:28:43;;;;;;;0.10;0.10;;;;;;;7.16;100.00;96146.66;4918068;29;20315;-75
2022/11/07 01:31:32;;;;;;;0.10;0.10;;;;;;;7.32;100.00;96134.50;4902194;29;20043;-74
2022/11/07 01:34:18;;;;;;;0.10;0.10;;;;;;;7.31;100.00;96140.81;4912849;29;20126;-75
2022/11/07 01:37:03;;;;;;;0.20;0.20;;;;;;;7.23;100.00;96134.00;4914271;29;20158;-76
2022/11/07 01:39:49;;;;;;;0.10;0.10;;;;;;;7.25;100.00;96126.63;4915943;29;20039;-75
2022/11/07 01:42:35;;;;;;;0.10;0.10;;;;;;;7.19;100.00;96142.72;4927173;28;20384;-75
2022/11/07 01:45:27;;;;;;;0.10;0.10;;;;;;;7.31;100.00;96127.53;4900052;29;20243;-74
2022/11/07 01:48:12;;;;;;;0.10;0.10;;;;;;;7.45;100.00;96120.88;4926743;28;20106;-75
2022/11/07 01:50:58;;;;;;;0.10;0.10;;;;;;;7.45;100.00;96130.72;4899571;29;20726;-76
2022/11/07 01:53:44;;;;;;;0.10;0.10;;;;;;;7.49;100.00;96131.88;4915377;29;20054;-77
2022/11/07 01:56:34;;;;;;;0.10;0.10;;;;;;;7.45;100.00;96128.06;4914698;29;20056;-75
2022/11/07 01:59:23;;;;;;;0.15;0.15;;;;;;;7.37;100.00;96118.59;4914117;29;20050;-76
2022/11/07 02:02:09;;;;;;;0.10;0.10;;;;;;;7.28;100.00;96106.72;4913622;29;20132;-77
2022/11/07 02:04:58;;;;;;;0.10;0.10;;;;;;;7.21;100.00;96120.16;4914896;29;20343;-77
2022/11/07 02:07:45;;;;;;;0.10;0.10;;;;;;;7.30;100.00;96127.75;4913979;29;20451;-75
2022/11/07 02:10:33;;;;;;;0.10;0.10;;;;;;;7.35;100.00;96120.69;4914627;29;20173;-76
2022/11/07 02:13:25;;;;;;;0.20;0.20;;;;;;;7.27;100.00;96118.41;4914045;29;20044;-75
2022/11/07 02:16:11;;;;;;;0.10;0.10;;;;;;;7.27;100.00;96121.06;4909859;28;20471;-77
2022/11/07 02:18:58;;;;;;;0.10;0.10;;;;;;;7.35;100.00;96139.31;4869590;29;20079;-77
2022/11/07 02:21:57;;;;;;;0.10;0.10;;;;;;;7.37;100.00;96123.13;4879464;29;20648;-77
2022/11/07 02:24:44;;;;;;;0.10;0.10;;;;;;;7.38;100.00;96128.19;4876230;29;20033;-76
2022/11/07 02:27:32;;;;;;;0.10;0.10;;;;;;;7.44;100.00;96127.25;4878095;29;20056;-76
2022/11/07 02:30:24;;;;;;;0.10;0.10;;;;;;;7.44;100.00;96132.59;4858656;29;20600;-76
2022/11/07 02:33:19;;;;;;;0.10;0.10;;;;;;;7.40;100.00;96128.78;4877261;29;20431;-75
2022/11/07 02:36:05;;;;;;;0.10;0.10;;;;;;;7.45;100.00;96123.53;4877089;29;20045;-76
2022/11/07 02:38:57;;;;;;;0.10;0.10;;;;;;;7.53;100.00;96133.00;4873323;29;20598;-76
2022/11/07 02:41:45;;;;;;;0.10;0.10;;;;;;;7.63;100.00;96124.44;4877893;29;20627;-75
2022/11/07 02:44:31;;;;;;;0.10;0.10;;;;;;;7.59;100.00;96128.59;4875327;29;20084;-76
2022/11/07 02:47:17;;;;;;;0.13;0.13;;;;;;;7.56;100.00;96126.44;4877318;29;20347;-76
2022/11/07 02:50:07;;;;;;;0.10;0.10;;;;;;;7.61;100.00;96139.81;4874854;29;20540;-77
2022/11/07 02:52:52;;;;;;;0.10;0.10;;;;;;;7.60;100.00;96140.88;4878156;29;20411;-77
2022/11/07 02:55:38;;;;;;;0.10;0.10;;;;;;;7.62;100.00;96141.44;4877261;29;20055;-76
2022/11/07 02:58:24;;;;;;;0.10;0.10;;;;;;;7.66;100.00;96142.59;4877599;29;20416;-75
2022/11/07 03:01:11;;;;;;;0.10;0.10;;;;;;;7.71;100.00;96137.38;4878137;29;20100;-77
2022/11/07 03:03:57;;;;;;;0.10;0.10;;;;;;;7.76;100.00;96140.91;4877704;29;20136;-76
2022/11/07 03:06:42;;;;;;;0.10;0.10;;;;;;;7.77;100.00;96139.88;4880575;29;20502;-77
2022/11/07 03:09:28;;;;;;;0.10;0.10;;;;;;;7.72;100.00;96141.66;4877771;29;20407;-75
2022/11/07 03:12:14;;;;;;;0.10;0.10;;;;;;;7.79;100.00;96137.78;4877914;29;20120;-76
2022/11/07 03:15:00;;;;;;;0.10;0.10;;;;;;;7.77;100.00;96149.72;4878194;29;20303;-75
2022/11/07 03:17:48;;;;;;;0.10;0.10;;;;;;;7.79;100.00;96142.31;4882615;29;20087;-76
2022/11/07 03:20:34;;;;;;;0.10;0.10;;;;;;;7.80;100.00;96143.94;4877154;29;20136;-76
2022/11/07 03:23:20;;;;;;;0.20;0.20;;;;;;;7.81;100.00;96145.53;4878116;29;20398;-76
2022/11/07 03:26:06;;;;;;;0.20;0.20;;;;;;;7.88;100.00;96142.75;4879386;29;20073;-76
2022/11/07 03:28:51;;;;;;;0.10;0.10;;;;;;;7.86;100.00;96150.97;4877752;29;20044;-76
2022/11/07 03:31:37;;;;;;;0.10;0.10;;;;;;;7.99;100.00;96144.53;4878321;29;20167;-75
2022/11/07 03:34:23;;;;;;;0.10;0.10;;;;;;;7.98;100.00;96140.25;4877137;29;20484;-76
2022/11/07 03:37:09;;;;;;;0.10;0.10;;;;;;;7.96;100.00;96137.03;4879764;29;20534;-76
2022/11/07 03:39:55;;;;;;;0.10;0.10;;;;;;;7.97;100.00;96146.63;4878099;29;20048;-77
2022/11/07 03:42:43;;;;;;;0.10;0.10;;;;;;;7.99;100.00;96140.00;4869353;29;20048;-76
2022/11/07 03:45:29;;;;;;;0.10;0.10;;;;;;;8.12;100.00;96133.56;4875654;29;20052;-77
2022/11/07 03:48:14;;;;;;;0.10;0.10;;;;;;;8.14;100.00;96136.00;4876735;29;20188;-78
2022/11/07 03:51:00;;;;;;;0.10;0.10;;;;;;;8.10;100.00;96141.81;4875017;29;20052;-74
2022/11/07 03:53:46;;;;;;;0.10;0.10;;;;;;;8.10;100.00;96133.81;4876043;29;20108;-75
2022/11/07 03:56:32;;;;;;;0.10;0.10;;;;;;;8.26;100.00;96139.41;4874159;29;20060;-75
2022/11/07 03:59:18;;;;;;;0.10;0.10;;;;;;;8.27;100.00;96144.50;4875268;29;20048;-75
2022/11/07 04:02:04;;;;;;;0.10;0.10;;;;;;;8.27;100.00;96155.16;4875207;29;20048;-75
2022/11/07 04:04:50;;;;;;;0.10;0.10;;;;;;;8.29;100.00;96141.59;4876333;29;20159;-74
2022/11/07 04:07:35;;;;;;;0.10;0.10;;;;;;;8.26;100.00;96147.41;4874246;29;20045;-74
2022/11/07 04:10:21;;;;;;;0.10;0.10;;;;;;;8.35;100.00;96145.97;4876467;29;20082;-76
2022/11/07 04:19:17;;;;;;;0.10;0.10;;;;;;;8.50;100.00;96154.22;4874810;29;20410;-73
2022/11/07 04:22:02;;;;;;;0.10;0.10;;;;;;;8.52;100.00;96154.78;4875048;29;20071;-74
2022/11/07 04:24:48;;;;;;;0.10;0.10;;;;;;;8.50;100.00;96153.44;4874253;29;20407;-74
2022/11/07 04:27:45;;;;;;;0.10;0.10;;;;;;;8.49;100.00;96149.97;4873577;29;20373;-74
2022/11/07 04:30:31;;;;;;;0.10;0.10;;;;;;;8.46;100.00;96158.41;4874492;29;20087;-75
2022/11/07 04:33:17;;;;;;;0.10;0.10;;;;;;;8.47;100.00;96149.38;4876461;29;20048;-76
2022/11/07 04:36:03;;;;;;;0.10;0.10;;;;;;;8.53;100.00;96159.06;4873541;29;20047;-74
2022/11/07 04:38:49;;;;;;;0.10;0.10;;;;;;;8.51;100.00;96145.19;4875902;29;20051;-75
2022/11/07 04:41:35;;;;;;;0.10;0.10;;;;;;;8.43;100.00;96158.09;4873798;29;20663;-75
2022/11/07 04:44:21;;;;;;;0.10;0.10;;;;;;;8.43;100.00;96150.91;4874127;29;20068;-76
2022/11/07 04:47:07;;;;;;;0.10;0.10;;;;;;;8.47;100.00;96161.91;4877664;29;20078;-74
2022/11/07 04:49:52;;;;;;;0.20;0.15;;;;;;;8.53;100.00;96153.75;4874898;29;20052;-75
2022/11/07 04:52:39;;;;;;;0.10;0.10;;;;;;;8.53;100.00;96150.25;4873499;29;20067;-76
2022/11/07 04:55:29;;;;;;;0.10;0.10;;;;;;;8.52;100.00;96152.13;4876257;29;20579;-76
2022/11/07 04:58:15;;;;;;;0.10;0.10;;;;;;;8.59;100.00;96151.97;4877219;29;20054;-76
2022/11/07 05:01:01;;;;;;;0.10;0.10;;;;;;;8.49;100.00;96151.81;4876744;29;20049;-75
2022/11/07 05:03:46;;;;;;;0.10;0.10;;;;;;;8.41;100.00;96145.03;4877840;29;20100;-74
2022/11/07 05:06:35;;;;;;;0.10;0.10;;;;;;;8.44;100.00;96165.88;4877855;29;20112;-74
2022/11/07 05:09:20;;;;;;;0.13;0.13;;;;;;;8.41;100.00;96154.88;4881222;29;20453;-76
2022/11/07 05:12:06;;;;;;;0.10;0.10;;;;;;;8.42;100.00;96191.97;4883257;29;20054;-73
2022/11/07 05:14:52;;;;;;;0.10;0.10;;;;;;;8.45;100.00;96177.34;4881272;29;20048;-74
2022/11/07 05:17:38;;;;;;;0.10;0.10;;;;;;;8.58;100.00;96180.50;4880068;29;20056;-76
2022/11/07 05:20:28;;;;;;;0.10;0.10;;;;;;;8.51;100.00;96187.03;4881200;29;20096;-76
2022/11/07 05:23:16;;;;;;;0.10;0.10;;;;;;;8.45;100.00;96172.81;4880147;29;20172;-76
2022/11/07 05:26:02;;;;;;;0.10;0.10;;;;;;;8.48;100.00;96184.84;4881631;29;20083;-75
2022/11/07 05:28:48;;;;;;;0.13;0.13;;;;;;;8.39;100.00;96179.09;4882175;29;20515;-75
2022/11/07 05:31:33;;;;;;;0.10;0.10;;;;;;;8.35;100.00;96183.31;4880801;29;20045;-75
2022/11/07 05:34:19;;;;;;;0.10;0.10;;;;;;;8.35;100.00;96181.44;4880158;29;20059;-77
2022/11/07 05:37:07;;;;;;;0.10;0.10;;;;;;;8.42;100.00;96181.31;4883240;29;20049;-75
2022/11/07 05:39:53;;;;;;;0.10;0.10;;;;;;;8.32;100.00;96194.41;4883128;29;20462;-75
2022/11/07 05:42:39;;;;;;;0.10;0.10;;;;;;;8.19;100.00;96186.72;4882202;29;20051;-74
2022/11/07 05:45:26;;;;;;;0.10;0.10;;;;;;;8.16;100.00;96179.19;4882189;29;20037;-73
2022/11/07 05:48:13;;;;;;;0.10;0.10;;;;;;;8.20;100.00;96169.69;4880995;29;20132;-74
2022/11/07 05:50:59;;;;;;;0.10;0.10;;;;;;;8.32;100.00;96170.41;4880499;29;20052;-75
2022/11/07 05:53:45;;;;;;;0.10;0.10;;;;;;;8.34;100.00;96179.00;4879401;29;20261;-75
2022/11/07 05:56:31;;;;;;;0.10;0.10;;;;;;;8.35;100.00;96172.66;4883435;29;20052;-74
2022/11/07 05:59:16;;;;;;;0.10;0.10;;;;;;;8.32;100.00;96187.22;4877893;29;20044;-75
2022/11/07 06:02:02;;;;;;;0.10;0.10;;;;;;;8.38;100.00;96177.47;4879559;29;20182;-75
2022/11/07 06:04:48;;;;;;;0.10;0.10;;;;;;;8.29;100.00;96174.38;4880779;29;20143;-73
2022/11/07 06:07:38;;;;;;;0.20;0.20;;;;;;;8.25;100.00;96181.25;4878790;29;20611;-75
2022/11/07 06:10:25;;;;;;;0.10;0.10;;;;;;;8.21;100.00;96187.28;4880428;29;20051;-76
2022/11/07 06:13:13;;;;;;;0.10;0.10;;;;;;;8.23;100.00;96187.84;4881755;29;20128;-75
2022/11/07 06:15:59;;;;;;;0.10;0.10;;;;;;;8.28;100.00;96178.09;4882319;29;20048;-75
2022/11/07 06:18:45;;;;;;;0.10;0.10;;;;;;;8.30;100.00;96186.66;4917981;29;20096;-76
2022/11/07 06:21:31;;;;;;;0.10;0.10;;;;;;;8.38;100.00;96193.47;4917235;29;20574;-76
2022/11/07 06:24:16;;;;;;;0.20;0.20;;;;;;;8.37;100.00;96203.34;4915776;29;20039;-76
2022/11/07 06:27:02;;;;;;;0.10;0.10;;;;;;;8.40;100.00;96199.38;4919006;29;20039;-75
2022/11/07 06:29:48;;;;;;;0.10;0.10;;;;;;;8.37;100.00;96200.69;4915727;29;20396;-75
2022/11/07 06:32:35;;;;;;;0.10;0.10;;;;;;;8.33;100.00;96196.84;4914164;29;20593;-75
2022/11/07 06:35:21;;;;;;;0.10;0.10;;;;;;;8.40;100.00;96195.91;4918701;29;20146;-76
2022/11/07 06:38:09;;;;;;;0.10;0.10;;;;;;;8.48;100.00;96208.84;4918060;29;20047;-74
2022/11/07 06:40:54;;;;;;;0.10;0.10;;;;;;;8.47;100.00;96212.56;4915779;29;20255;-76
2022/11/07 06:43:41;;;;;;;0.10;0.10;;;;;;;8.55;100.00;96212.97;4916962;29;20131;-74
2022/11/07 06:46:26;;;;;;;0.10;0.10;;;;;;;8.61;100.00;96205.88;4918847;29;20047;-74
2022/11/07 06:49:14;;;;;;;0.10;0.10;;;;;;;8.64;100.00;96208.88;4901731;29;20055;-75
2022/11/07 06:52:00;;;;;;;0.10;0.10;;;;;;;8.60;100.00;96220.25;4917387;29;20162;-76
2022/11/07 06:54:46;;;;;;;0.10;0.10;;;;;;;8.67;100.00;96222.78;4914936;29;20270;-75
2022/11/07 06:57:32;;;;;;;0.10;0.10;;;;;;;8.68;100.00;96224.38;4902921;29;20426;-75
2022/11/07 07:00:18;;;;;;;0.10;0.10;;;;;;;8.69;100.00;96215.34;4898112;29;20078;-74
2022/11/07 07:03:04;;;;;;;0.20;0.20;;;;;;;8.75;100.00;96235.72;4901606;29;20044;-75
2022/11/07 07:05:50;;;;;;;0.15;0.15;;;;;;;8.78;100.00;96219.22;4916549;29;20682;-75
2022/11/07 07:08:36;;;;;;;0.10;0.10;;;;;;;8.89;100.00;96231.69;4914908;29;20590;-74
2022/11/07 07:11:22;;;;;;;0.10;0.10;;;;;;;8.86;100.00;96232.13;4918708;28;20244;-76
2022/11/07 07:14:08;;;;;;;0.20;0.20;;;;;;;8.92;100.00;96233.84;4916519;29;20044;-75
2022/11/07 07:16:57;;;;;;;0.10;0.10;;;;;;;9.05;100.00;96241.53;4915439;29;20096;-75
2022/11/07 07:19:43;;;;;;;0.10;0.10;;;;;;;9.06;100.00;96235.13;4913057;29;20050;-75
2022/11/07 07:22:29;;;;;;;0.10;0.10;;;;;;;9.10;100.00;96241.59;4928391;28;20040;-75
2022/11/07 07:25:15;;;;;;;0.10;0.10;;;;;;;9.17;100.00;96242.22;4917134;29;20050;-76
2022/11/07 07:28:01;;;;;;;0.10;0.10;;;;;;;9.24;100.00;96255.41;4927900;28;20110;-74
2022/11/07 07:30:46;;;;;;;0.10;0.10;;;;;;;9.31;100.00;96250.72;4914919;29;20039;-75
2022/11/07 07:33:32;;;;;;;0.10;0.10;;;;;;;9.30;100.00;96253.63;4901499;29;20444;-75
2022/11/07 07:36:20;;;;;;;0.10;0.10;;;;;;;9.20;100.00;96260.44;4914910;29;20048;-76
2022/11/07 07:39:05;;;;;;;0.15;0.15;;;;;;;9.21;100.00;96258.59;4918028;29;20082;-76
2022/11/07 07:41:51;;;;;;;0.10;0.10;;;;;;;9.12;100.00;96255.53;4917509;29;20048;-75
2022/11/07 07:44:40;;;;;;;0.10;0.10;;;;;;;9.29;100.00;96257.38;4915840;29;20754;-74
2022/11/07 07:47:26;;;;;;;0.20;0.20;;;;;;;9.31;100.00;96260.59;4915544;29;20059;-74
2022/11/07 07:50:13;;;;;;;0.13;0.13;;;;;;;9.32;100.00;96254.19;4917107;29;20439;-75
2022/11/07 07:52:58;;;;;;;0.10;0.10;;;;;;;9.38;100.00;96247.88;4917477;29;20050;-75
2022/11/07 07:55:44;;;;;;;0.10;0.10;;;;;;;9.43;100.00;96261.31;4916698;29;20043;-76
2022/11/07 07:58:30;;;;;;;0.10;0.10;;;;;;;9.49;100.00;96257.63;4917955;29;20110;-75
2022/11/07 08:01:16;;;;;;;0.10;0.10;;;;;;;9.51;100.00;96254.75;4915557;29;20467;-76
2022/11/07 08:04:02;;;;;;;0.10;0.10;;;;;;;9.51;100.00;96260.09;4916512;29;20075;-75
2022/11/07 08:06:48;;;;;;;0.10;0.10;;;;;;;9.49;100.00;96244.28;4915748;29;20052;-75
2022/11/07 08:09:37;;;;;;;0.10;0.10;;;;;;;9.63;100.00;96255.44;4915417;29;20097;-75
2022/11/07 08:12:23;;;;;;;0.20;0.20;;;;;;;9.67;100.00;96257.38;4919323;29;20131;-74
2022/11/07 08:15:10;;;;;;;0.10;0.10;;;;;;;9.74;100.00;96263.34;4915889;29;20077;-75
2022/11/07 08:18:00;;;;;;;0.10;0.10;;;;;;;9.83;100.00;96268.25;4915792;29;20052;-76
2022/11/07 08:20:49;;;;;;;0.10;0.10;;;;;;;9.73;100.00;96272.41;4895952;29;20067;-76
2022/11/07 08:23:36;;;;;;;0.10;0.10;;;;;;;9.90;100.00;96256.31;4913513;29;20035;-75
2022/11/07 08:26:22;;;;;;;0.10;0.10;;;;;;;9.83;100.00;96270.94;4916567;29;20039;-76
2022/11/07 08:29:08;;;;;;;0.10;0.10;;;;;;;9.83;100.00;96265.59;4915841;29;20495;-76
2022/11/07 08:31:54;;;;;;;0.10;0.10;;;;;;;9.84;100.00;96280.56;4917409;29;20054;-75
2022/11/07 08:34:40;;;;;;;0.10;0.10;;;;;;;9.84;100.00;96276.03;4914390;29;20487;-75
2022/11/07 08:37:26;;;;;;;0.10;0.10;;;;;;;9.75;100.00;96272.16;4916165;29;20062;-75
2022/11/07 08:40:12;;;;;;;0.10;0.10;;;;;;;9.78;100.00;96272.47;4915830;29;20235;-75
2022/11/07 08:42:59;;;;;;;0.10;0.10;;;;;;;9.84;100.00;96280.56;4928167;28;20304;-75
2022/11/07 08:45:46;;;;;;;0.10;0.10;;;;;;;9.98;100.00;96271.94;4918310;29;20123;-75
2022/11/07 08:48:32;;;;;;;0.10;0.10;;;;;;;9.83;100.00;96281.63;4918612;29;20578;-75
2022/11/07 08:51:18;;;;;;;0.10;0.10;;;;;;;9.85;100.00;96272.28;4919937;29;20519;-76
2022/11/07 08:54:04;;;;;;;0.10;0.10;;;;;;;9.80;100.00;96276.75;4917081;29;20035;-75
2022/11/07 08:56:50;;;;;;;0.17;0.17;;;;;;;9.86;100.00;96278.44;4917320;29;20043;-75
2022/11/07 08:59:36;;;;;;;0.10;0.10;;;;;;;9.80;100.00;96276.75;4917300;29;20047;-75
2022/11/07 09:02:22;;;;;;;0.10;0.10;;;;;;;9.84;100.00;96277.88;4917672;29;20040;-76
2022/11/07 09:05:08;;;;;;;0.10;0.10;;;;;;;9.69;100.00;96283.84;4917776;29;20283;-74
2022/11/07 09:07:54;;;;;;;0.10;0.10;;;;;;;9.74;100.00;96292.75;4918628;29;20278;-74
2022/11/07 09:10:40;;;;;;;0.10;0.10;;;;;;;9.88;100.00;96282.47;4918180;29;20050;-74
2022/11/07 09:13:26;;;;;;;0.20;0.20;;;;;;;9.98;100.00;96295.19;4917939;29;20055;-75
2022/11/07 09:16:16;;;;;;;0.10;0.10;;;;;;;9.93;100.00;96298.59;4903713;29;20542;-75
2022/11/07 09:19:02;;;;;;;0.10;0.10;;;;;;;10.11;100.00;96297.47;4916672;29;20126;-75
2022/11/07 09:21:48;;;;;;;0.10;0.10;;;;;;;10.10;100.00;96303.06;4920139;29;20050;-75
2022/11/07 09:24:36;;;;;;;0.10;0.10;;;;;;;10.16;100.00;96291.38;4914108;29;20325;-75
2022/11/07 09:27:22;;;;;;;0.10;0.10;;;;;;;10.25;100.00;96300.59;4917288;29;20047;-75
2022/11/07 09:30:08;;;;;;;0.10;0.10;;;;;;;10.15;100.00;96303.94;4919330;29;20046;-75
2022/11/07 09:32:55;;;;;;;0.10;0.10;;;;;;;10.21;100.00;96286.91;4917464;29;20405;-75
2022/11/07 09:35:41;;;;;;;0.10;0.10;;;;;;;10.26;100.00;96304.88;4896055;29;20044;-75
2022/11/07 09:38:27;;;;;;;0.10;0.10;;;;;;;10.27;100.00;96302.00;4917732;29;20852;-74
2022/11/07 09:41:28;;;;;;;0.10;0.10;;;;;;;10.64;100.00;96298.63;4917761;29;20055;-75
2022/11/07 09:44:36;;;;;;;0.10;0.10;;;;;;;10.60;100.00;96303.69;4928376;28;20130;-75
2022/11/07 09:47:45;;;;;;;0.10;0.10;;;;;;;10.63;100.00;96302.34;4918651;29;20058;-75
2022/11/07 09:50:42;;;;;;;0.13;0.13;;;;;;;10.70;100.00;96300.28;4916885;29;20044;-75
2022/11/07 09:53:38;;;;;;;0.10;0.10;;;;;;;10.52;100.00;96303.31;4916947;29;20050;-76
2022/11/07 09:56:29;;;;;;;0.10;0.10;;;;;;;10.46;100.00;96301.66;4870808;29;20143;-75
2022/11/07 09:59:23;;;;;;;0.10;0.10;;;;;;;10.66;100.00;96309.06;4926081;28;20043;-76
2022/11/07 10:02:17;;;;;;;0.10;0.10;;;;;;;10.97;100.00;96310.16;4918071;29;20562;-75
2022/11/07 10:05:04;;;;;;;0.10;0.10;;;;;;;11.06;100.00;96314.81;4915642;29;20547;-76
2022/11/07 10:07:57;;;;;;;0.10;0.10;;;;;;;10.75;100.00;96316.41;4916601;29;20469;-75
2022/11/07 10:10:53;;;;;;;0.10;0.10;;;;;;;10.71;100.00;96338.56;4916709;29;20031;-76
2022/11/07 10:13:56;;;;;;;0.10;0.10;;;;;;;10.90;100.00;96312.28;4915107;29;20380;-75
2022/11/07 10:16:50;;;;;;;0.10;0.10;;;;;;;10.97;100.00;96321.72;4918913;29;20289;-75
2022/11/07 10:19:55;;;;;;;0.10;0.10;;;;;;;10.73;100.00;96331.09;4915176;29;20046;-75
2022/11/07 10:23:02;;;;;;;0.10;0.10;;;;;;;10.92;100.00;96310.94;4917246;29;20605;-74
2022/11/07 10:26:06;;;;;;;0.10;0.10;;;;;;;10.83;100.00;96321.31;4913393;29;20047;-75
2022/11/07 10:29:10;;;;;;;0.10;0.10;;;;;;;10.80;100.00;96332.50;4915563;29;20307;-74
2022/11/07 10:31:58;;;;;;;0.30;0.20;;;;;;;10.60;100.00;96316.25;4919250;29;20060;-75
2022/11/07 10:35:14;;;;;;;0.10;0.10;;;;;;;10.81;100.00;96331.44;4915668;29;20166;-76
2022/11/07 10:38:13;;;;;;;0.10;0.10;;;;;;;10.56;100.00;96337.34;4895131;29;20548;-75
2022/11/07 10:40:59;;;;;;;0.10;0.10;;;;;;;10.50;100.00;96332.16;4896836;29;20118;-75
2022/11/07 10:43:48;;;;;;;0.13;0.10;;;;;;;10.40;100.00;96348.94;4904605;29;20078;-75
2022/11/07 10:46:40;;;;;;;0.10;0.10;;;;;;;10.43;100.00;96353.00;4915889;29;20523;-76
2022/11/07 10:49:30;;;;;;;;;;;;;;;10.42;100.00;96348.66;4918093;29;20047;-76
2022/11/07 10:52:17;;;;;;;0.10;0.10;;;;;;;10.66;100.00;96350.03;4915833;29;19918;-76
2022/11/07 10:55:24;;;;;;;0.10;0.10;;;;;;;10.78;100.00;96349.88;4886982;28;20407;-75
2022/11/07 10:58:24;;;;;;;0.10;0.10;;;;;;;10.75;100.00;96350.41;4916796;29;20056;-76
2022/11/07 11:01:11;;;;;;;0.17;0.17;;;;;;;10.72;100.00;96334.81;4912976;29;20106;-76
2022/11/07 11:03:57;;;;;;;0.10;0.10;;;;;;;10.54;100.00;96336.78;4914949;29;20084;-75
2022/11/07 11:06:43;;;;;;;0.10;0.10;;;;;;;10.58;100.00;96342.44;4916619;29;20438;-75
2022/11/07 11:09:38;;;;;;;0.10;0.10;;;;;;;10.62;100.00;96326.69;4916774;29;20039;-75
2022/11/07 11:12:26;;;;;;;0.10;0.10;;;;;;;10.75;100.00;96324.44;4916114;29;20052;-76
2022/11/07 11:15:19;;;;;;;0.10;0.10;;;;;;;10.68;100.00;96323.81;4917226;29;20050;-76
2022/11/07 11:18:13;;;;;;;0.13;0.10;;;;;;;11.00;100.00;96325.75;4897270;29;20059;-75
2022/11/07 11:21:02;;;;;;;0.10;0.10;;;;;;;11.15;100.00;96312.47;4919089;29;20716;-75
2022/11/07 11:23:48;;;;;;;0.10;0.10;;;;;;;11.22;100.00;96313.09;4917259;29;20035;-75
2022/11/07 11:26:38;;;;;;;0.10;0.10;;;;;;;11.18;100.00;96314.63;4917941;29;20111;-74
2022/11/07 11:29:27;;;;;;;0.10;0.10;;;;;;;12.57;100.00;96306.31;4917151;29;20086;-76
2022/11/07 11:32:34;;;;;;;0.20;0.20;;;;;;;12.27;100.00;96302.47;4917384;29;21063;-76
2022/11/07 11:35:54;;;;;;;0.10;0.10;;;;;;;12.06;100.00;96293.53;4589180;28;10000823;-76
2022/11/07 11:38:44;;;;;;;0.10;0.10;;;;;;;11.85;100.00;96294.50;4578305;28;10001730;-75
2022/11/07 11:41:33;;;;;;;0.10;0.10;;;;;;;12.21;100.00;96295.47;4915072;29;20491;-75
2022/11/07 11:44:27;;;;;;;0.10;0.10;;;;;;;11.84;100.00;96303.63;4914691;29;20059;-75
2022/11/07 11:47:26;;;;;;;0.10;0.10;;;;;;;11.84;100.00;96303.63;4916727;29;20506;-75
2022/11/07 11:50:11;;;;;;;0.10;0.10;;;;;;;11.83;100.00;96308.19;4916149;29;20577;-75
2022/11/07 11:52:59;;;;;;;0.10;0.10;;;;;;;11.34;100.00;96313.69;4915951;29;20056;-73
2022/11/07 11:55:56;;;;;;;0.10;0.10;;;;;;;11.47;100.00;96309.78;4913932;29;20507;-74
2022/11/07 11:59:07;;;;;;;0.10;0.10;;;;;;;11.23;100.00;96316.56;4914214;29;20315;-75
2022/11/07 12:02:28;;;;;;;0.10;0.10;;;;;;;11.70;100.00;96312.06;4913545;29;20297;-76
2022/11/07 12:05:13;;;;;;;0.10;0.10;;;;;;;11.75;100.00;96302.44;4916589;29;20047;-75
2022/11/07 12:08:05;;;;;;;0.10;0.10;;;;;;;11.64;100.00;96307.75;4916546;29;20463;-74
2022/11/07 12:11:13;;;;;;;0.10;0.10;;;;;;;11.68;100.00;96310.72;4912106;29;20563;-75
2022/11/07 12:14:26;;;;;;;0.10;0.10;;;;;;;11.56;100.00;96315.47;4915495;29;20047;-75
2022/11/07 12:17:12;;;;;;;0.10;0.10;;;;;;;11.27;100.00;96317.66;4927000;28;20063;-74
2022/11/07 12:19:58;;;;;;;0.10;0.10;;;;;;;11.39;100.00;96316.44;4919999;29;20388;-74
2022/11/07 12:22:56;;;;;;;0.10;0.10;;;;;;;11.15;100.00;96317.84;4918344;29;20044;-75
2022/11/07 12:25:52;;;;;;;0.13;0.13;;;;;;;11.16;100.00;96317.59;4918358;29;20497;-74
2022/11/07 12:28:41;;;;;;;0.10;0.10;;;;;;;11.25;100.00;96307.19;4919098;29;20047;-74
2022/11/07 12:31:36;;;;;;;0.10;0.10;;;;;;;11.35;100.00;96290.38;4918082;29;20448;-75
2022/11/07 12:34:41;;;;;;;0.13;0.10;;;;;;;11.64;100.00;96305.06;4919226;29;20048;-75
2022/11/07 12:37:33;;;;;;;0.10;0.10;;;;;;;11.12;100.00;96294.22;4918235;29;20095;-75
2022/11/07 12:40:45;;;;;;;0.10;0.10;;;;;;;11.36;100.00;96298.19;4919380;29;20044;-75
2022/11/07 12:43:50;;;;;;;0.10;0.10;;;;;;;11.19;100.00;96302.88;4919580;29;20164;-75
2022/11/07 12:46:49;;;;;;;0.20;0.20;;;;;;;11.25;100.00;96298.34;4920379;29;20484;-74
2022/11/07 12:49:41;;;;;;;0.10;0.10;;;;;;;11.24;100.00;96305.59;4931366;28;20350;-77
2022/11/07 12:53:23;;;;;;;0.10;0.10;;;;;;;11.25;100.00;96301.03;4916004;29;20099;-76
2022/11/07 12:56:16;;;;;;;0.10;0.10;;;;;;;11.36;100.00;96287.47;4878041;29;20570;-76
2022/11/07 12:59:21;;;;;;;0.10;0.10;;;;;;;11.41;100.00;96295.53;4920031;29;20554;-75
2022/11/07 13:02:22;;;;;;;0.20;0.20;;;;;;;12.08;100.00;96283.34;4905258;29;20071;-76
2022/11/07 13:05:34;;;;;;;0.17;0.10;;;;;;;12.12;100.00;96297.84;4917444;29;20639;-75
2022/11/07 13:08:25;;;;;;;0.10;0.10;;;;;;;11.96;100.00;96283.56;4917035;29;20678;-76
2022/11/07 13:11:16;;;;;;;0.10;0.10;;;;;;;11.86;100.00;96283.50;4918454;29;20131;-76
2022/11/07 13:14:24;;;;;;;0.10;0.10;;;;;;;12.28;100.00;96282.59;4905360;29;20353;-77
2022/11/07 13:17:18;;;;;;;0.10;0.10;;;;;;;12.14;100.00;96293.03;4917778;29;20287;-76
2022/11/07 13:20:19;;;;;;;0.10;0.10;;;;;;;11.79;100.00;96282.91;4918021;29;20036;-76
2022/11/07 13:23:14;;;;;;;0.10;0.10;;;;;;;11.77;100.00;96284.25;4919536;29;20365;-76
2022/11/07 13:26:03;;;;;;;0.10;0.10;;;;;;;11.50;100.00;96292.38;4919046;29;20610;-76